X  Cerrar Datos meteorológicos de aviación METAR     ETAR Ramstein Air Base
Temperatura
12°C Temperatura
8°C Punto de rocío
77% Humedad



Viento
19 KM/H
12 MPH
5 M/S
10 NUDO



40°
NE
Condiciones actuales

Parcialmente nublado Parcialmente nublado
Presión 999.66 (hPa) - 29.52 (inHg)
Visibilidad 6 (milla) - 9.7 (km)
Aeropuerto
Código de aeropuerto ETAR

localidad: Ramstein Air Base
Distancia: 25 (km)

Metar:
ETAR 261410Z AUTO 04010KT 9999 FEW023 BKN032 12/08 A2952 RMK AO2 SLP002 $

Hora: 26-02-2024 15:10 CET